sensor_id;sensor_type;location;lat;lon;timestamp;pressure;altitude;pressure_sealevel;temperature;humidity
69784;BME280;57054;51.978;4.498;2022-08-19T00:00:18;101402.22;;;19.02;79.55
69784;BME280;57054;51.978;4.498;2022-08-19T00:02:44;101391.59;;;19.02;79.47
69784;BME280;57054;51.978;4.498;2022-08-19T00:05:12;101388.19;;;18.99;79.31
69784;BME280;57054;51.978;4.498;2022-08-19T00:07:39;101389.97;;;18.99;79.72
69784;BME280;57054;51.978;4.498;2022-08-19T00:10:06;101380.34;;;18.98;79.35
69784;BME280;57054;51.978;4.498;2022-08-19T00:12:32;101383.19;;;18.95;79.63
69784;BME280;57054;51.978;4.498;2022-08-19T00:14:58;101383.28;;;18.93;79.63
69784;BME280;57054;51.978;4.498;2022-08-19T00:17:23;101384.25;;;18.92;79.49
69784;BME280;57054;51.978;4.498;2022-08-19T00:19:49;101394.03;;;18.92;79.63
69784;BME280;57054;51.978;4.498;2022-08-19T00:22:14;101390.59;;;18.90;79.63
69784;BME280;57054;51.978;4.498;2022-08-19T00:24:41;101399.53;;;18.89;79.55
69784;BME280;57054;51.978;4.498;2022-08-19T00:27:08;101401.34;;;18.88;79.59
69784;BME280;57054;51.978;4.498;2022-08-19T00:29:34;101400.56;;;18.86;79.64
69784;BME280;57054;51.978;4.498;2022-08-19T00:31:59;101409.50;;;18.85;79.64
69784;BME280;57054;51.978;4.498;2022-08-19T00:34:25;101403.44;;;18.83;79.81
69784;BME280;57054;51.978;4.498;2022-08-19T00:36:54;101399.06;;;18.82;79.76
69784;BME280;57054;51.978;4.498;2022-08-19T00:39:19;101400.88;;;18.82;79.86
69784;BME280;57054;51.978;4.498;2022-08-19T00:41:47;101396.50;;;18.80;79.86
69784;BME280;57054;51.978;4.498;2022-08-19T00:44:18;101397.47;;;18.79;79.78
69784;BME280;57054;51.978;4.498;2022-08-19T00:46:48;101396.59;;;18.79;79.82
69784;BME280;57054;51.978;4.498;2022-08-19T00:49:35;101394.91;;;18.78;80.04
69784;BME280;57054;51.978;4.498;2022-08-19T00:52:09;101399.47;;;18.76;80.06
69784;BME280;57054;51.978;4.498;2022-08-19T00:54:38;101401.38;;;18.74;79.86
69784;BME280;57054;51.978;4.498;2022-08-19T00:57:07;101403.16;;;18.73;80.01
69784;BME280;57054;51.978;4.498;2022-08-19T00:59:38;101405.91;;;18.72;79.96
69784;BME280;57054;51.978;4.498;2022-08-19T01:02:05;101403.38;;;18.70;80.03
69784;BME280;57054;51.978;4.498;2022-08-19T01:04:31;101406.03;;;18.70;79.97
69784;BME280;57054;51.978;4.498;2022-08-19T01:06:57;101404.31;;;18.69;79.92
69784;BME280;57054;51.978;4.498;2022-08-19T01:09:23;101405.28;;;18.68;80.14
69784;BME280;57054;51.978;4.498;2022-08-19T01:11:50;101406.22;;;18.67;80.08
69784;BME280;57054;51.978;4.498;2022-08-19T01:14:15;101408.13;;;18.65;80.04
69784;BME280;57054;51.978;4.498;2022-08-19T01:16:42;101412.59;;;18.65;80.04
69784;BME280;57054;51.978;4.498;2022-08-19T01:19:28;101418.84;;;18.64;80.12
69784;BME280;57054;51.978;4.498;2022-08-19T01:22:36;101410.97;;;18.62;80.15
69784;BME280;57054;51.978;4.498;2022-08-19T01:25:07;101404.00;;;18.61;80.15
69784;BME280;57054;51.978;4.498;2022-08-19T01:27:58;101399.63;;;18.60;80.25
69784;BME280;57054;51.978;4.498;2022-08-19T01:30:27;101402.38;;;18.58;80.24
69784;BME280;57054;51.978;4.498;2022-08-19T01:32:56;101403.34;;;18.57;80.40
69784;BME280;57054;51.978;4.498;2022-08-19T01:35:25;101408.63;;;18.57;80.19
69784;BME280;57054;51.978;4.498;2022-08-19T01:37:57;101409.56;;;18.56;80.27
69784;BME280;57054;51.978;4.498;2022-08-19T01:40:26;101415.81;;;18.55;80.32
69784;BME280;57054;51.978;4.498;2022-08-19T01:42:52;101409.78;;;18.53;80.19
69784;BME280;57054;51.978;4.498;2022-08-19T01:45:20;101415.06;;;18.53;80.26
69784;BME280;57054;51.978;4.498;2022-08-19T01:47:46;101408.94;;;18.53;80.40
69784;BME280;57054;51.978;4.498;2022-08-19T01:50:12;101401.91;;;18.52;80.30
69784;BME280;57054;51.978;4.498;2022-08-19T01:52:40;101401.16;;;18.50;80.46
69784;BME280;57054;51.978;4.498;2022-08-19T01:55:09;101400.31;;;18.49;80.45
69784;BME280;57054;51.978;4.498;2022-08-19T01:57:35;101396.81;;;18.49;80.16
69784;BME280;57054;51.978;4.498;2022-08-19T02:00:06;101395.97;;;18.48;80.45
69784;BME280;57054;51.978;4.498;2022-08-19T02:02:32;101395.97;;;18.48;80.16
69784;BME280;57054;51.978;4.498;2022-08-19T02:04:58;101393.44;;;18.47;80.04
69784;BME280;57054;51.978;4.498;2022-08-19T02:07:24;101392.56;;;18.46;79.71
69784;BME280;57054;51.978;4.498;2022-08-19T02:09:49;101395.19;;;18.46;79.76
69784;BME280;57054;51.978;4.498;2022-08-19T02:12:15;101402.41;;;18.44;79.58
69784;BME280;57054;51.978;4.498;2022-08-19T02:14:41;101404.13;;;18.45;80.10
69784;BME280;57054;51.978;4.498;2022-08-19T02:17:07;101408.59;;;18.45;80.11
69784;BME280;57054;51.978;4.498;2022-08-19T02:19:32;101401.56;;;18.44;80.24
69784;BME280;57054;51.978;4.498;2022-08-19T02:21:59;101399.75;;;18.44;80.35
69784;BME280;57054;51.978;4.498;2022-08-19T02:24:25;101392.78;;;18.43;80.42
69784;BME280;57054;51.978;4.498;2022-08-19T02:26:51;101396.34;;;18.42;80.67
69784;BME280;57054;51.978;4.498;2022-08-19T02:29:17;101406.13;;;18.41;80.67
69784;BME280;57054;51.978;4.498;2022-08-19T02:31:42;101395.53;;;18.41;80.62
69784;BME280;57054;51.978;4.498;2022-08-19T02:34:08;101401.75;;;18.40;80.62
69784;BME280;57054;51.978;4.498;2022-08-19T02:36:33;101392.22;;;18.38;80.57
69784;BME280;57054;51.978;4.498;2022-08-19T02:38:59;101401.00;;;18.38;80.66
69784;BME280;57054;51.978;4.498;2022-08-19T02:41:27;101389.56;;;18.38;80.58
69784;BME280;57054;51.978;4.498;2022-08-19T02:43:55;101391.38;;;18.37;80.51
69784;BME280;57054;51.978;4.498;2022-08-19T02:46:28;101388.72;;;18.37;80.57
69784;BME280;57054;51.978;4.498;2022-08-19T02:48:56;101380.88;;;18.36;80.88
69784;BME280;57054;51.978;4.498;2022-08-19T02:51:27;101380.00;;;18.35;80.77
69784;BME280;57054;51.978;4.498;2022-08-19T02:53:52;101367.69;;;18.34;80.76
69784;BME280;57054;51.978;4.498;2022-08-19T02:56:18;101368.63;;;18.33;80.67
69784;BME280;57054;51.978;4.498;2022-08-19T02:58:44;101372.25;;;18.32;80.64
69784;BME280;57054;51.978;4.498;2022-08-19T03:01:10;101375.00;;;18.31;80.75
69784;BME280;57054;51.978;4.498;2022-08-19T03:03:37;101369.69;;;18.31;80.73
69784;BME280;57054;51.978;4.498;2022-08-19T03:06:13;101368.84;;;18.30;80.66
69784;BME280;57054;51.978;4.498;2022-08-19T03:08:41;101367.97;;;18.30;80.95
69784;BME280;57054;51.978;4.498;2022-08-19T03:11:13;101371.59;;;18.29;80.90
69784;BME280;57054;51.978;4.498;2022-08-19T03:13:39;101362.81;;;18.28;80.99
69784;BME280;57054;51.978;4.498;2022-08-19T03:16:04;101367.16;;;18.29;80.98
69784;BME280;57054;51.978;4.498;2022-08-19T03:18:30;101369.03;;;18.27;80.87
69784;BME280;57054;51.978;4.498;2022-08-19T03:20:56;101369.88;;;18.28;80.95
69784;BME280;57054;51.978;4.498;2022-08-19T03:23:22;101366.41;;;18.27;81.01
69784;BME280;57054;51.978;4.498;2022-08-19T03:25:51;101362.03;;;18.26;81.16
69784;BME280;57054;51.978;4.498;2022-08-19T03:28:17;101353.22;;;18.26;80.94
69784;BME280;57054;51.978;4.498;2022-08-19T03:30:55;101358.53;;;18.26;81.11
69784;BME280;57054;51.978;4.498;2022-08-19T03:33:22;101357.78;;;18.23;81.21
69784;BME280;57054;51.978;4.498;2022-08-19T03:35:59;101363.94;;;18.24;81.14
69784;BME280;57054;51.978;4.498;2022-08-19T03:38:25;101363.94;;;18.24;80.92
69784;BME280;57054;51.978;4.498;2022-08-19T03:40:50;101360.53;;;18.22;80.47
69784;BME280;57054;51.978;4.498;2022-08-19T03:43:15;101358.84;;;18.21;79.81
69784;BME280;57054;51.978;4.498;2022-08-19T03:45:42;101361.50;;;18.21;79.41
69784;BME280;57054;51.978;4.498;2022-08-19T03:48:08;101365.00;;;18.21;79.48
69784;BME280;57054;51.978;4.498;2022-08-19T03:50:38;101353.66;;;18.19;79.32
69784;BME280;57054;51.978;4.498;2022-08-19T03:53:03;101367.75;;;18.20;78.75
69784;BME280;57054;51.978;4.498;2022-08-19T03:55:29;101364.25;;;18.19;78.42
69784;BME280;57054;51.978;4.498;2022-08-19T03:57:54;101371.22;;;18.20;78.36
69784;BME280;57054;51.978;4.498;2022-08-19T04:00:20;101371.31;;;18.19;77.94
69784;BME280;57054;51.978;4.498;2022-08-19T04:02:45;101374.84;;;18.19;77.58
69784;BME280;57054;51.978;4.498;2022-08-19T04:05:10;101377.50;;;18.19;77.43
69784;BME280;57054;51.978;4.498;2022-08-19T04:07:36;101388.09;;;18.19;77.24
69784;BME280;57054;51.978;4.498;2022-08-19T04:10:03;101375.69;;;18.20;77.59
69784;BME280;57054;51.978;4.498;2022-08-19T04:12:28;101381.94;;;18.19;77.93
69784;BME280;57054;51.978;4.498;2022-08-19T04:14:53;101379.19;;;18.20;78.22
69784;BME280;57054;51.978;4.498;2022-08-19T04:17:19;101380.16;;;18.19;78.26
69784;BME280;57054;51.978;4.498;2022-08-19T04:19:44;101384.50;;;18.20;78.24
69784;BME280;57054;51.978;4.498;2022-08-19T04:22:10;101384.59;;;18.19;78.14
69784;BME280;57054;51.978;4.498;2022-08-19T04:24:36;101382.81;;;18.19;77.94
69784;BME280;57054;51.978;4.498;2022-08-19T04:27:02;101384.50;;;18.20;77.18
69784;BME280;57054;51.978;4.498;2022-08-19T04:29:27;101382.81;;;18.19;77.14
69784;BME280;57054;51.978;4.498;2022-08-19T04:31:55;101385.47;;;18.19;76.97
69784;BME280;57054;51.978;4.498;2022-08-19T04:34:23;101392.44;;;18.20;76.53
69784;BME280;57054;51.978;4.498;2022-08-19T04:36:50;101376.63;;;18.19;76.66
69784;BME280;57054;51.978;4.498;2022-08-19T04:39:19;101383.66;;;18.20;76.45
69784;BME280;57054;51.978;4.498;2022-08-19T04:41:44;101383.66;;;18.20;76.14
69784;BME280;57054;51.978;4.498;2022-08-19T04:44:30;101387.13;;;18.20;76.26
69784;BME280;57054;51.978;4.498;2022-08-19T04:46:56;101378.34;;;18.20;76.27
69784;BME280;57054;51.978;4.498;2022-08-19T04:49:23;101378.34;;;18.20;75.83
69784;BME280;57054;51.978;4.498;2022-08-19T04:51:50;101383.66;;;18.20;75.99
69784;BME280;57054;51.978;4.498;2022-08-19T04:54:18;101382.72;;;18.21;76.07
69784;BME280;57054;51.978;4.498;2022-08-19T04:56:49;101387.03;;;18.22;76.61
69784;BME280;57054;51.978;4.498;2022-08-19T04:59:16;101388.75;;;18.23;76.86
69784;BME280;57054;51.978;4.498;2022-08-19T05:01:42;101387.69;;;18.26;78.71
69784;BME280;57054;51.978;4.498;2022-08-19T05:04:08;101394.72;;;18.27;77.80
69784;BME280;57054;51.978;4.498;2022-08-19T05:06:35;101394.72;;;18.27;77.19
69784;BME280;57054;51.978;4.498;2022-08-19T05:09:03;101391.09;;;18.28;76.94
69784;BME280;57054;51.978;4.498;2022-08-19T05:11:33;101396.31;;;18.29;76.94
69784;BME280;57054;51.978;4.498;2022-08-19T05:13:59;101395.38;;;18.30;77.20
69784;BME280;57054;51.978;4.498;2022-08-19T05:16:25;101400.53;;;18.32;77.02
69784;BME280;57054;51.978;4.498;2022-08-19T05:18:51;101399.59;;;18.33;76.82
69784;BME280;57054;51.978;4.498;2022-08-19T05:21:36;101390.72;;;18.34;76.96
69784;BME280;57054;51.978;4.498;2022-08-19T05:24:21;101392.41;;;18.35;77.28
69784;BME280;57054;51.978;4.498;2022-08-19T05:26:49;101394.03;;;18.37;77.43
69784;BME280;57054;51.978;4.498;2022-08-19T05:29:18;101402.81;;;18.38;77.52
69784;BME280;57054;51.978;4.498;2022-08-19T05:31:45;101392.22;;;18.38;77.38
69784;BME280;57054;51.978;4.498;2022-08-19T05:34:11;101388.50;;;18.40;77.12
69784;BME280;57054;51.978;4.498;2022-08-19T05:36:42;101382.34;;;18.40;77.40
69784;BME280;57054;51.978;4.498;2022-08-19T05:39:12;101383.09;;;18.42;77.89
69784;BME280;57054;51.978;4.498;2022-08-19T05:41:43;101380.34;;;18.44;77.76
69784;BME280;57054;51.978;4.498;2022-08-19T05:44:09;101383.00;;;18.44;77.71
69784;BME280;57054;51.978;4.498;2022-08-19T05:46:36;101375.81;;;18.46;77.66
69784;BME280;57054;51.978;4.498;2022-08-19T05:49:05;101387.25;;;18.46;77.88
69784;BME280;57054;51.978;4.498;2022-08-19T05:51:32;101387.06;;;18.49;78.08
69784;BME280;57054;51.978;4.498;2022-08-19T05:53:59;101391.44;;;18.50;78.16
69784;BME280;57054;51.978;4.498;2022-08-19T05:56:24;101391.28;;;18.52;78.29
69784;BME280;57054;51.978;4.498;2022-08-19T05:58:50;101393.00;;;18.53;78.33
69784;BME280;57054;51.978;4.498;2022-08-19T06:01:17;101383.16;;;18.55;78.66
69784;BME280;57054;51.978;4.498;2022-08-19T06:03:44;101380.41;;;18.56;78.84
69784;BME280;57054;51.978;4.498;2022-08-19T06:06:12;101367.13;;;18.56;78.58
69784;BME280;57054;51.978;4.498;2022-08-19T06:08:38;101374.16;;;18.57;78.23
69784;BME280;57054;51.978;4.498;2022-08-19T06:11:15;101377.66;;;18.58;78.71
69784;BME280;57054;51.978;4.498;2022-08-19T06:13:42;101380.22;;;18.59;78.82
69784;BME280;57054;51.978;4.498;2022-08-19T06:16:08;101377.47;;;18.61;78.54
69784;BME280;57054;51.978;4.498;2022-08-19T06:18:33;101387.94;;;18.63;79.03
69784;BME280;57054;51.978;4.498;2022-08-19T06:20:59;101398.56;;;18.63;79.18
69784;BME280;57054;51.978;4.498;2022-08-19T06:23:28;101388.72;;;18.65;79.39
69784;BME280;57054;51.978;4.498;2022-08-19T06:25:54;101394.88;;;18.65;79.54
69784;BME280;57054;51.978;4.498;2022-08-19T06:28:19;101384.16;;;18.67;79.77
69784;BME280;57054;51.978;4.498;2022-08-19T06:30:46;101383.19;;;18.68;79.41
69784;BME280;57054;51.978;4.498;2022-08-19T06:33:11;101388.41;;;18.69;79.10
69784;BME280;57054;51.978;4.498;2022-08-19T06:35:40;101381.28;;;18.70;79.29
69784;BME280;57054;51.978;4.498;2022-08-19T06:38:06;101385.56;;;18.72;79.19
69784;BME280;57054;51.978;4.498;2022-08-19T06:40:31;101385.47;;;18.74;79.99
69784;BME280;57054;51.978;4.498;2022-08-19T06:42:57;101393.28;;;18.75;79.72
69784;BME280;57054;51.978;4.498;2022-08-19T06:45:24;101385.31;;;18.75;79.40
69784;BME280;57054;51.978;4.498;2022-08-19T06:47:49;101395.00;;;18.76;79.08
69784;BME280;57054;51.978;4.498;2022-08-19T06:50:21;101385.13;;;18.78;79.08
69784;BME280;57054;51.978;4.498;2022-08-19T06:52:47;101389.44;;;18.81;79.90
69784;BME280;57054;51.978;4.498;2022-08-19T06:55:12;101393.78;;;18.82;79.47
69784;BME280;57054;51.978;4.498;2022-08-19T06:57:38;101386.56;;;18.84;79.69
69784;BME280;57054;51.978;4.498;2022-08-19T07:00:05;101382.97;;;18.85;79.93
69784;BME280;57054;51.978;4.498;2022-08-19T07:02:31;101396.97;;;18.87;79.86
69784;BME280;57054;51.978;4.498;2022-08-19T07:04:57;101390.72;;;18.88;80.20
69784;BME280;57054;51.978;4.498;2022-08-19T07:07:23;101389.66;;;18.91;80.90
69784;BME280;57054;51.978;4.498;2022-08-19T07:09:50;101395.81;;;18.91;80.93
69784;BME280;57054;51.978;4.498;2022-08-19T07:12:15;101402.81;;;18.92;81.19
69784;BME280;57054;51.978;4.498;2022-08-19T07:14:42;101406.13;;;18.96;81.86
69784;BME280;57054;51.978;4.498;2022-08-19T07:17:10;101406.88;;;18.98;81.62
69784;BME280;57054;51.978;4.498;2022-08-19T07:19:38;101410.28;;;19.00;81.88
69784;BME280;57054;51.978;4.498;2022-08-19T07:22:05;101419.81;;;19.03;82.09
69784;BME280;57054;51.978;4.498;2022-08-19T07:24:32;101423.25;;;19.05;81.66
69784;BME280;57054;51.978;4.498;2022-08-19T07:27:00;101419.44;;;19.09;82.01
69784;BME280;57054;51.978;4.498;2022-08-19T07:29:29;101417.50;;;19.11;82.26
69784;BME280;57054;51.978;4.498;2022-08-19T07:31:57;101404.97;;;19.13;82.74
69784;BME280;57054;51.978;4.498;2022-08-19T07:34:24;101414.53;;;19.15;83.15
69784;BME280;57054;51.978;4.498;2022-08-19T07:36:50;101416.16;;;19.18;83.12
69784;BME280;57054;51.978;4.498;2022-08-19T07:39:20;101410.72;;;19.20;82.82
69784;BME280;57054;51.978;4.498;2022-08-19T07:41:47;101416.88;;;19.20;82.17
69784;BME280;57054;51.978;4.498;2022-08-19T07:44:14;101416.69;;;19.23;82.41
69784;BME280;57054;51.978;4.498;2022-08-19T07:46:45;101421.03;;;19.24;82.49
69784;BME280;57054;51.978;4.498;2022-08-19T07:49:12;101412.97;;;19.26;82.90
69784;BME280;57054;51.978;4.498;2022-08-19T07:51:43;101412.03;;;19.27;83.10
69784;BME280;57054;51.978;4.498;2022-08-19T07:54:09;101416.34;;;19.28;82.38
69784;BME280;57054;51.978;4.498;2022-08-19T07:56:34;101422.41;;;19.30;82.22
69784;BME280;57054;51.978;4.498;2022-08-19T07:59:00;101425.84;;;19.32;82.31
69784;BME280;57054;51.978;4.498;2022-08-19T08:01:27;101422.22;;;19.33;82.46
69784;BME280;57054;51.978;4.498;2022-08-19T08:03:54;101438.78;;;19.36;82.19
69784;BME280;57054;51.978;4.498;2022-08-19T08:06:40;101428.06;;;19.38;82.29
69784;BME280;57054;51.978;4.498;2022-08-19T08:09:33;101434.84;;;19.42;82.79
69784;BME280;57054;51.978;4.498;2022-08-19T08:12:12;101432.00;;;19.45;83.62
69784;BME280;57054;51.978;4.498;2022-08-19T08:14:47;101443.25;;;19.49;83.76
69784;BME280;57054;51.978;4.498;2022-08-19T08:17:15;101442.19;;;19.51;83.69
69784;BME280;57054;51.978;4.498;2022-08-19T08:19:41;101436.78;;;19.53;83.38
69784;BME280;57054;51.978;4.498;2022-08-19T08:22:08;101442.72;;;19.56;83.12
69784;BME280;57054;51.978;4.498;2022-08-19T08:24:54;101440.72;;;19.60;83.22
69784;BME280;57054;51.978;4.498;2022-08-19T08:27:19;101441.34;;;19.64;83.70
69784;BME280;57054;51.978;4.498;2022-08-19T08:29:45;101449.22;;;19.65;83.35
69784;BME280;57054;51.978;4.498;2022-08-19T08:32:11;101449.00;;;19.68;83.04
69784;BME280;57054;51.978;4.498;2022-08-19T08:34:36;101449.66;;;19.72;82.88
69784;BME280;57054;51.978;4.498;2022-08-19T08:37:02;101450.41;;;19.74;83.15
69784;BME280;57054;51.978;4.498;2022-08-19T08:39:28;101453.72;;;19.78;83.19
69784;BME280;57054;51.978;4.498;2022-08-19T08:42:23;101458.78;;;19.81;83.89
69784;BME280;57054;51.978;4.498;2022-08-19T08:47:20;101446.88;;;19.86;83.91
69784;BME280;57054;51.978;4.498;2022-08-19T08:49:56;101447.66;;;19.88;84.46
69784;BME280;57054;51.978;4.498;2022-08-19T08:52:36;101449.13;;;19.92;85.01
69784;BME280;57054;51.978;4.498;2022-08-19T08:55:12;101449.75;;;19.96;84.65
69784;BME280;57054;51.978;4.498;2022-08-19T08:57:50;101445.19;;;19.98;84.44
69784;BME280;57054;51.978;4.498;2022-08-19T09:00:28;101451.97;;;20.02;84.48
69784;BME280;57054;51.978;4.498;2022-08-19T09:02:56;101450.91;;;20.05;84.26
69784;BME280;57054;51.978;4.498;2022-08-19T09:05:23;101454.06;;;20.10;84.69
69784;BME280;57054;51.978;4.498;2022-08-19T09:08:02;101452.06;;;20.13;84.41
69784;BME280;57054;51.978;4.498;2022-08-19T09:10:54;101449.28;;;20.15;84.45
69784;BME280;57054;51.978;4.498;2022-08-19T09:13:37;101461.53;;;20.18;83.96
69784;BME280;57054;51.978;4.498;2022-08-19T09:16:27;101453.41;;;20.19;84.06
69784;BME280;57054;51.978;4.498;2022-08-19T09:18:57;101453.22;;;20.22;84.51
69784;BME280;57054;51.978;4.498;2022-08-19T09:21:24;101453.09;;;20.24;84.44
69784;BME280;57054;51.978;4.498;2022-08-19T09:23:51;101458.31;;;20.25;84.21
69784;BME280;57054;51.978;4.498;2022-08-19T09:26:19;101459.16;;;20.26;83.50
69784;BME280;57054;51.978;4.498;2022-08-19T09:28:47;101459.06;;;20.27;83.05
69784;BME280;57054;51.978;4.498;2022-08-19T09:31:15;101466.09;;;20.28;83.19
69784;BME280;57054;51.978;4.498;2022-08-19T09:33:41;101466.94;;;20.29;83.11
69784;BME280;57054;51.978;4.498;2022-08-19T09:36:10;101465.09;;;20.29;82.33
69784;BME280;57054;51.978;4.498;2022-08-19T09:38:36;101466.09;;;20.28;82.00
69784;BME280;57054;51.978;4.498;2022-08-19T09:41:06;101473.94;;;20.30;82.19
69784;BME280;57054;51.978;4.498;2022-08-19T09:43:33;101474.81;;;20.30;81.36
69784;BME280;57054;51.978;4.498;2022-08-19T09:46:02;101471.25;;;20.30;81.26
69784;BME280;57054;51.978;4.498;2022-08-19T09:48:28;101471.25;;;20.30;81.11
69784;BME280;57054;51.978;4.498;2022-08-19T09:50:53;101472.97;;;20.31;81.25
69784;BME280;57054;51.978;4.498;2022-08-19T09:53:19;101476.47;;;20.31;81.45
69784;BME280;57054;51.978;4.498;2022-08-19T09:55:47;101480.84;;;20.32;81.52
69784;BME280;57054;51.978;4.498;2022-08-19T09:58:13;101474.56;;;20.33;81.06
69784;BME280;57054;51.978;4.498;2022-08-19T10:00:38;101476.16;;;20.36;81.21
69784;BME280;57054;51.978;4.498;2022-08-19T10:03:03;101469.75;;;20.39;81.22
69784;BME280;57054;51.978;4.498;2022-08-19T10:05:29;101477.63;;;20.40;81.24
69784;BME280;57054;51.978;4.498;2022-08-19T10:08:13;101479.09;;;20.44;80.98
69784;BME280;57054;51.978;4.498;2022-08-19T10:10:38;101476.22;;;20.47;81.11
69784;BME280;57054;51.978;4.498;2022-08-19T10:13:04;101478.69;;;20.50;81.18
69784;BME280;57054;51.978;4.498;2022-08-19T10:15:29;101469.63;;;20.53;80.96
69784;BME280;57054;51.978;4.498;2022-08-19T10:17:55;101468.41;;;20.57;80.49
69784;BME280;57054;51.978;4.498;2022-08-19T10:20:20;101462.88;;;20.60;80.70
69784;BME280;57054;51.978;4.498;2022-08-19T10:22:47;101467.78;;;20.66;81.71
69784;BME280;57054;51.978;4.498;2022-08-19T10:25:13;101474.59;;;20.70;82.05
69784;BME280;57054;51.978;4.498;2022-08-19T10:27:41;101467.34;;;20.73;81.29
69784;BME280;57054;51.978;4.498;2022-08-19T10:30:07;101473.41;;;20.75;81.65
69784;BME280;57054;51.978;4.498;2022-08-19T10:32:34;101464.56;;;20.74;81.07
69784;BME280;57054;51.978;4.498;2022-08-19T10:34:59;101466.16;;;20.77;81.07
69784;BME280;57054;51.978;4.498;2022-08-19T10:37:25;101474.13;;;20.77;80.70
69784;BME280;57054;51.978;4.498;2022-08-19T10:39:51;101469.66;;;20.77;80.48
69784;BME280;57054;51.978;4.498;2022-08-19T10:42:17;101469.53;;;20.79;80.38
69784;BME280;57054;51.978;4.498;2022-08-19T10:44:43;101468.59;;;20.80;80.45
69784;BME280;57054;51.978;4.498;2022-08-19T10:47:09;101471.16;;;20.81;80.33
69784;BME280;57054;51.978;4.498;2022-08-19T10:49:35;101465.94;;;20.80;80.32
69784;BME280;57054;51.978;4.498;2022-08-19T10:52:20;101461.44;;;20.80;80.52
69784;BME280;57054;51.978;4.498;2022-08-19T10:55:06;101460.50;;;20.81;80.23
69784;BME280;57054;51.978;4.498;2022-08-19T10:57:50;101471.16;;;20.81;80.47
69784;BME280;57054;51.978;4.498;2022-08-19T11:00:18;101475.50;;;20.82;80.54
69784;BME280;57054;51.978;4.498;2022-08-19T11:02:43;101465.56;;;20.84;80.55
69784;BME280;57054;51.978;4.498;2022-08-19T11:05:09;101467.38;;;20.84;80.29
69784;BME280;57054;51.978;4.498;2022-08-19T11:07:41;101469.94;;;20.85;80.05
69784;BME280;57054;51.978;4.498;2022-08-19T11:10:08;101467.28;;;20.85;79.96
69784;BME280;57054;51.978;4.498;2022-08-19T11:12:37;101466.31;;;20.86;80.39
69784;BME280;57054;51.978;4.498;2022-08-19T11:15:05;101464.41;;;20.88;80.42
69784;BME280;57054;51.978;4.498;2022-08-19T11:17:32;101468.84;;;20.88;80.60
69784;BME280;57054;51.978;4.498;2022-08-19T11:19:58;101474.06;;;20.89;80.95
69784;BME280;57054;51.978;4.498;2022-08-19T11:22:23;101478.44;;;20.90;80.42
69784;BME280;57054;51.978;4.498;2022-08-19T11:24:49;101479.28;;;20.91;80.50
69784;BME280;57054;51.978;4.498;2022-08-19T11:27:14;101469.47;;;20.92;80.55
69784;BME280;57054;51.978;4.498;2022-08-19T11:29:40;101468.53;;;20.93;80.70
69784;BME280;57054;51.978;4.498;2022-08-19T11:32:08;101467.53;;;20.94;81.08
69784;BME280;57054;51.978;4.498;2022-08-19T11:34:39;101465.66;;;20.96;81.10
69784;BME280;57054;51.978;4.498;2022-08-19T11:37:05;101470.00;;;20.97;81.35
69784;BME280;57054;51.978;4.498;2022-08-19T11:39:32;101469.88;;;20.98;80.92
69784;BME280;57054;51.978;4.498;2022-08-19T11:41:59;101475.00;;;21.01;80.85
69784;BME280;57054;51.978;4.498;2022-08-19T11:44:25;101475.72;;;21.03;80.71
69784;BME280;57054;51.978;4.498;2022-08-19T11:46:51;101471.13;;;21.05;80.80
69784;BME280;57054;51.978;4.498;2022-08-19T11:49:18;101467.38;;;21.08;80.85
69784;BME280;57054;51.978;4.498;2022-08-19T11:51:44;101463.75;;;21.09;80.93
69784;BME280;57054;51.978;4.498;2022-08-19T11:54:11;101466.31;;;21.11;80.64
69784;BME280;57054;51.978;4.498;2022-08-19T11:56:38;101464.38;;;21.13;80.06
69784;BME280;57054;51.978;4.498;2022-08-19T11:59:04;101465.31;;;21.12;80.33
69784;BME280;57054;51.978;4.498;2022-08-19T12:01:29;101473.19;;;21.13;80.33
69784;BME280;57054;51.978;4.498;2022-08-19T12:03:56;101473.94;;;21.15;80.11
69784;BME280;57054;51.978;4.498;2022-08-19T12:06:28;101477.09;;;21.20;81.72
69784;BME280;57054;51.978;4.498;2022-08-19T12:08:59;101475.91;;;21.24;81.56
69784;BME280;57054;51.978;4.498;2022-08-19T12:11:25;101473.84;;;21.28;81.84
69784;BME280;57054;51.978;4.498;2022-08-19T12:13:51;101467.56;;;21.29;81.16
69784;BME280;57054;51.978;4.498;2022-08-19T12:16:23;101466.47;;;21.32;81.85
69784;BME280;57054;51.978;4.498;2022-08-19T12:18:50;101468.19;;;21.33;81.47
69784;BME280;57054;51.978;4.498;2022-08-19T12:21:18;101464.44;;;21.35;81.25
69784;BME280;57054;51.978;4.498;2022-08-19T12:23:46;101465.41;;;21.34;81.12
69784;BME280;57054;51.978;4.498;2022-08-19T12:26:11;101466.13;;;21.36;81.31
69784;BME280;57054;51.978;4.498;2022-08-19T12:28:37;101466.97;;;21.37;81.20
69784;BME280;57054;51.978;4.498;2022-08-19T12:31:03;101472.06;;;21.40;81.50
69784;BME280;57054;51.978;4.498;2022-08-19T12:33:28;101467.47;;;21.42;80.92
69784;BME280;57054;51.978;4.498;2022-08-19T12:35:54;101466.53;;;21.43;80.38
69784;BME280;57054;51.978;4.498;2022-08-19T12:38:24;101465.53;;;21.44;80.76
69784;BME280;57054;51.978;4.498;2022-08-19T12:40:50;101461.06;;;21.44;80.75
69784;BME280;57054;51.978;4.498;2022-08-19T12:43:17;101464.47;;;21.46;80.84
69784;BME280;57054;51.978;4.498;2022-08-19T12:45:42;101458.19;;;21.47;80.97
69784;BME280;57054;51.978;4.498;2022-08-19T12:48:09;101460.75;;;21.49;81.86
69784;BME280;57054;51.978;4.498;2022-08-19T12:50:34;101460.75;;;21.49;82.00
69784;BME280;57054;51.978;4.498;2022-08-19T12:53:03;101459.75;;;21.50;81.73
69784;BME280;57054;51.978;4.498;2022-08-19T12:55:28;101462.19;;;21.53;82.19
69784;BME280;57054;51.978;4.498;2022-08-19T12:57:54;101448.88;;;21.53;81.75